Daily Reports
[Select Refresh to Update]
Updated Automatically by Ambient Software's Virtual Weather Station  V14.01


Daily Archive Report

Parameter                   Max   Max Time        Min   Min Time    Average
Wind Direction              334     2:39am         25     2:39am        270
Wind Speed                 20.0     2:58am        0.0    12:04am        3.0
Wind Gust                  20.0     2:58am        0.0     6:00am       14.4
Humidity                     73    12:00am         59     2:25am         64
Out Temp                   41.1    12:07am       34.0     7:12am       36.5
Raw Barometer             29.68    11:44am      29.35    12:00am      29.51
Dew Point                  33.1    12:07am       22.5     3:44am       25.5


Today's  Data File

11/24/14
Time         Wind Dir   Wind Spd  Wind Gust   Humidity       Temp  Raw Barom  Dew Point Barom Rate Wind Spd H WindGust H Humidity H Temp Out H Humidity L Temp Out L  DailyRain   24HrRain
                            mph        mph          %         F         in         F      in/hr        mph        mph          %         F          %         F         in         in
12:00am           275        8.0       18.0         73       40.9      29.35       32.9      0.005       18.0       18.0         73       40.9         73       40.9       0.00       0.00
12:05am           264        6.0        8.0         73       40.9      29.35       32.9      0.005       18.0       18.0         73       40.9         73       40.9       0.00       0.00
12:10am           289        6.0       10.0         73       41.1      29.35       33.1      0.004       18.0       18.0         73       41.1         73       40.9       0.00       0.00
12:15am           269        0.0       10.0         72       41.1      29.35       32.8      0.010       18.0       18.0         73       41.1         72       40.9       0.00       0.00
12:20am           259        3.0       10.0         73       41.1      29.35       33.1      0.009       18.0       18.0         73       41.1         72       40.9       0.00       0.00
12:25am           258        6.0       10.0         72       40.9      29.35       32.6      0.008       18.0       18.0         73       41.1         72       40.9       0.00       0.00
12:30am           255        2.0       10.0         72       40.9      29.36       32.6      0.013       18.0       18.0         73       41.1         72       40.9       0.00       0.00
12:35am           160        3.0       10.0         71       40.8      29.36       32.1      0.012       18.0       18.0         73       41.1         71       40.8       0.00       0.00
12:40am           248        3.0       11.0         71       40.6      29.36       31.9      0.011       18.0       18.0         73       41.1         71       40.6       0.00       0.00
12:45am           256        0.0       11.0         70       40.6      29.37       31.6      0.021       18.0       18.0         73       41.1         70       40.6       0.00       0.00
12:50am           258        3.0       11.0         70       40.5      29.37       31.5      0.019       18.0       18.0         73       41.1         70       40.5       0.00       0.00
12:55am           264        0.0       11.0         69       40.3      29.37       31.0      0.017       18.0       18.0         73       41.1         69       40.3       0.00       0.00
1:00am            245        6.0       11.0         69       40.3      29.38       31.0      0.021       18.0       18.0         73       41.1         69       40.3       0.00       0.00
1:05am            240        4.0       10.0         69       40.1      29.38       30.8      0.019       18.0       18.0         73       41.1         69       40.1       0.00       0.00
1:10am            266        1.0       10.0         69       39.9      29.38       30.6      0.018       18.0       18.0         73       41.1         69       39.9       0.00       0.00
1:15am            238        1.0       10.0         68       39.9      29.39       30.2      0.029       18.0       18.0         73       41.1         68       39.9       0.00       0.00
1:20am            262        2.0       10.0         68       39.9      29.39       30.2      0.027       18.0       18.0         73       41.1         68       39.8       0.00       0.00
1:25am            244        5.0       13.0         67       39.6      29.39       29.6      0.025       18.0       18.0         73       41.1         67       39.6       0.00       0.00
1:30am            244       12.0       18.0         65       39.5      29.39       28.7      0.025       18.0       18.0         73       41.1         65       39.5       0.00       0.00
1:35am            276        2.0       18.0         64       39.2      29.39       28.1      0.023       18.0       18.0         73       41.1         64       39.2       0.00       0.00
1:40am            293        6.0       18.0         64       39.1      29.39       28.0      0.021       18.0       18.0         73       41.1         64       39.1       0.00       0.00
1:45am            256        1.0       18.0         64       39.1      29.40       28.0      0.027       18.0       18.0         73       41.1         64       38.9       0.00       0.00
1:50am            245        7.0       18.0         64       38.9      29.40       27.8      0.025       18.0       18.0         73       41.1         64       38.9       0.00       0.00
1:55am            290        6.0       18.0         64       38.9      29.40       27.8      0.023       18.0       18.0         73       41.1         64       38.9       0.00       0.00
2:00am            234        3.0       18.0         64       38.9      29.42       27.8      0.037       18.0       18.0         73       41.1         64       38.9       0.00       0.00
2:05am            273        6.0       19.0         63       38.6      29.42       27.1      0.034       19.0       19.0         73       41.1         63       38.6       0.00       0.00
2:10am            175        0.0       19.0         61       38.5      29.42       26.2      0.031       19.0       19.0         73       41.1         61       38.5       0.00       0.00
2:15am            134        2.0       19.0         60       38.0      29.43       25.4      0.040       19.0       19.0         73       41.1         60       38.0       0.00       0.00
2:20am            175        5.0       19.0         60       37.8      29.43       25.2      0.036       19.0       19.0         73       41.1         60       37.8       0.00       0.00
2:25am            317        2.0       19.0         60       37.6      29.43       25.0      0.033       19.0       19.0         73       41.1         60       37.6       0.00       0.00
2:30am            234        1.0       19.0         59       37.3      29.44       24.3      0.044       19.0       19.0         73       41.1         59       37.3       0.00       0.00
2:35am            258        6.0       19.0         60       37.0      29.44       24.4      0.040       19.0       19.0         73       41.1         59       37.0       0.00       0.00
2:40am            261        6.0       19.0         60       36.9      29.44       24.3      0.037       19.0       19.0         73       41.1         59       36.9       0.00       0.00
2:45am            231        2.0       19.0         60       36.6      29.44       24.0      0.040       19.0       19.0         73       41.1         59       36.6       0.00       0.00
2:50am            232        1.0       19.0         60       36.5      29.44       23.9      0.037       19.0       19.0         73       41.1         59       36.5       0.00       0.00
2:55am            255        2.0       19.0         60       36.3      29.44       23.8      0.034       19.0       19.0         73       41.1         59       36.3       0.00       0.00
3:00am            254        1.0       20.0         60       36.2      29.46       23.7      0.042       20.0       20.0         73       41.1         59       36.2       0.00       0.00
3:05am            264        2.0       13.0         60       36.0      29.46       23.5      0.038       20.0       20.0         73       41.1         59       36.0       0.00       0.00
3:10am            278        6.0       13.0         61       35.9      29.46       23.8      0.035       20.0       20.0         73       41.1         59       35.9       0.00       0.00
3:15am            258        3.0       14.0         60       35.9      29.46       23.4      0.037       20.0       20.0         73       41.1         59       35.9       0.00       0.00
3:20am            134        7.0       14.0         60       35.8      29.46       23.3      0.034       20.0       20.0         73       41.1         59       35.8       0.00       0.00
3:25am            258        5.0       14.0         60       35.8      29.46       23.3      0.031       20.0       20.0         73       41.1         59       35.8       0.00       0.00
3:30am            169        3.0       14.0         61       35.6      29.47       23.5      0.034       20.0       20.0         73       41.1         59       35.6       0.00       0.00
3:35am            258        0.0       14.0         61       35.3      29.47       23.2      0.032       20.0       20.0         73       41.1         59       35.3       0.00       0.00
3:40am            170        0.0       14.0         61       35.2      29.47       23.1      0.029       20.0       20.0         73       41.1         59       35.2       0.00       0.00
3:45am            175        3.0       17.0         60       35.0      29.47       22.5      0.035       20.0       20.0         73       41.1         59       35.0       0.00       0.00
3:50am            283        6.0       17.0         61       35.0      29.47       22.9      0.032       20.0       20.0         73       41.1         59       35.0       0.00       0.00
3:55am            255        6.0       17.0         61       35.0      29.47       22.9      0.029       20.0       20.0         73       41.1         59       35.0       0.00       0.00
4:00am            231        6.0       17.0         61       35.0      29.48       22.9      0.028       20.0       20.0         73       41.1         59       35.0       0.00       0.00
4:05am            259        1.0       16.0         61       35.0      29.48       22.9      0.026       20.0       20.0         73       41.1         59       35.0       0.00       0.00
4:10am            288        6.0       20.0         61       35.2      29.48       23.1      0.024       20.0       20.0         73       41.1         59       35.0       0.00       0.00
4:15am            272        3.0       20.0         61       35.2      29.48       23.1      0.031       20.0       20.0         73       41.1         59       35.0       0.00       0.00
4:20am            259        0.0       20.0         61       35.0      29.48       22.9      0.028       20.0       20.0         73       41.1         59       35.0       0.00       0.00
4:25am            256        0.0       20.0         61       35.0      29.48       22.9      0.026       20.0       20.0         73       41.1         59       35.0       0.00       0.00
4:30am            259        0.0       20.0         62       35.0      29.49       23.3      0.029       20.0       20.0         73       41.1         59       35.0       0.00       0.00
4:35am            237        0.0       20.0         62       34.9      29.49       23.2      0.026       20.0       20.0         73       41.1         59       34.9       0.00       0.00
4:40am            276        2.0       20.0         62       34.9      29.49       23.2      0.024       20.0       20.0         73       41.1         59       34.9       0.00       0.00
4:45am            240        2.0       20.0         63       34.9      29.49       23.6      0.025       20.0       20.0         73       41.1         59       34.9       0.00       0.00
4:50am            280        0.0       20.0         63       34.9      29.49       23.6      0.023       20.0       20.0         73       41.1         59       34.9       0.00       0.00
4:55am            280        1.0       20.0         63       34.7      29.49       23.4      0.021       20.0       20.0         73       41.1         59       34.7       0.00       0.00
5:00am            280        2.0       20.0         63       34.7      29.50       23.4      0.025       20.0       20.0         73       41.1         59       34.7       0.00       0.00
5:05am            282        0.0        6.0         63       34.7      29.50       23.4      0.023       20.0       20.0         73       41.1         59       34.7       0.00       0.00
5:10am            282        0.0        6.0         63       34.7      29.50       23.4      0.021       20.0       20.0         73       41.1         59       34.7       0.00       0.00
5:15am            282        0.0        6.0         63       34.7      29.50       23.4      0.021       20.0       20.0         73       41.1         59       34.7       0.00       0.00
5:20am            280        0.0        6.0         64       34.6      29.50       23.7      0.019       20.0       20.0         73       41.1         59       34.6       0.00       0.00
5:25am            146        0.0        6.0         64       34.6      29.50       23.7      0.018       20.0       20.0         73       41.1         59       34.6       0.00       0.00
5:30am            156        0.0        6.0         64       34.6      29.50       23.7      0.017       20.0       20.0         73       41.1         59       34.6       0.00       0.00
5:35am            156        0.0        6.0         65       34.6      29.50       24.1      0.016       20.0       20.0         73       41.1         59       34.6       0.00       0.00
5:40am            156        0.0        6.0         65       34.6      29.50       24.1      0.015       20.0       20.0         73       41.1         59       34.6       0.00       0.00
5:45am            278        0.0        7.0         65       34.6      29.50       24.1      0.018       20.0       20.0         73       41.1         59       34.6       0.00       0.00
5:50am            279        0.0        7.0         66       34.6      29.50       24.4      0.016       20.0       20.0         73       41.1         59       34.6       0.00       0.00
5:55am            156        2.0        7.0         66       34.6      29.50       24.4      0.015       20.0       20.0         73       41.1         59       34.6       0.00       0.00
6:00am            158        0.0        7.0         66       34.6      29.51       24.4      0.023       20.0       20.0         73       41.1         59       34.6       0.00       0.00
6:05am            158        0.0        2.0         67       34.6      29.51       24.8      0.021       20.0       20.0         73       41.1         59       34.6       0.00       0.00
6:10am            232        4.0        7.0         67       34.6      29.51       24.8      0.019       20.0       20.0         73       41.1         59       34.6       0.00       0.00
6:15am            175        1.0       10.0         67       34.7      29.52       24.9      0.022       20.0       20.0         73       41.1         59       34.6       0.00       0.00
6:20am            144        3.0       10.0         67       34.7      29.52       24.9      0.021       20.0       20.0         73       41.1         59       34.6       0.00       0.00
6:25am            144        7.0       10.0         66       34.7      29.52       24.5      0.019       20.0       20.0         73       41.1         59       34.6       0.00       0.00
6:30am            118        0.0       10.0         66       34.7      29.53       24.5      0.028       20.0       20.0         73       41.1         59       34.6       0.00       0.00
6:35am            269        1.0       10.0         65       34.6      29.53       24.1      0.026       20.0       20.0         73       41.1         59       34.6       0.00       0.00
6:40am            173        2.0       11.0         65       34.6      29.53       24.1      0.024       20.0       20.0         73       41.1         59       34.6       0.00       0.00
6:45am            134        4.0       11.0         65       34.4      29.54       23.9      0.030       20.0       20.0         73       41.1         59       34.4       0.00       0.00
6:50am            141        3.0       11.0         65       34.4      29.54       23.9      0.028       20.0       20.0         73       41.1         59       34.4       0.00       0.00
6:55am            162        2.0       11.0         65       34.3      29.54       23.8      0.025       20.0       20.0         73       41.1         59       34.3       0.00       0.00
7:00am            153        1.0       11.0         66       34.3      29.55       24.1      0.033       20.0       20.0         73       41.1         59       34.3       0.00       0.00
7:05am            144        0.0        3.0         66       34.1      29.55       23.9      0.031       20.0       20.0         73       41.1         59       34.1       0.00       0.00
7:10am            129       11.0       11.0         66       34.1      29.55       23.9      0.028       20.0       20.0         73       41.1         59       34.1       0.00       0.00
7:15am            114        2.0       11.0         66       34.0      29.56       23.9      0.035       20.0       20.0         73       41.1         59       34.0       0.00       0.00
7:20am            148        1.0       11.0         65       34.0      29.56       23.5      0.032       20.0       20.0         73       41.1         59       34.0       0.00       0.00
7:25am            175        4.0       11.0         65       34.0      29.56       23.5      0.029       20.0       20.0         73       41.1         59       34.0       0.00       0.00
7:30am            139        2.0       11.0         65       34.0      29.56       23.5      0.035       20.0       20.0         73       41.1         59       34.0       0.00       0.00
7:35am            153        4.0       11.0         65       34.1      29.56       23.6      0.032       20.0       20.0         73       41.1         59       34.0       0.00       0.00
7:40am            254        1.0       11.0         65       34.3      29.56       23.8      0.030       20.0       20.0         73       41.1         59       34.0       0.00       0.00
7:45am            175        2.0       11.0         65       34.3      29.57       23.8      0.029       20.0       20.0         73       41.1         59       34.0       0.00       0.00
7:50am            238        2.0       11.0         65       34.3      29.57       23.8      0.027       20.0       20.0         73       41.1         59       34.0       0.00       0.00
7:55am            112        1.0       11.0         65       34.3      29.57       23.8      0.025       20.0       20.0         73       41.1         59       34.0       0.00       0.00
8:00am            114        0.0       11.0         65       34.3      29.58       23.8      0.035       20.0       20.0         73       41.1         59       34.0       0.00       0.00
8:05am            245        3.0        6.0         65       34.3      29.58       23.8      0.033       20.0       20.0         73       41.1         59       34.0       0.00       0.00
8:10am            148        1.0        8.0         65       34.4      29.58       23.9      0.030       20.0       20.0         73       41.1         59       34.0       0.00       0.00
8:15am            151        1.0        8.0         65       34.7      29.58       24.2      0.033       20.0       20.0         73       41.1         59       34.0       0.00       0.00
8:20am            145        5.0        8.0         64       34.7      29.58       23.8      0.030       20.0       20.0         73       41.1         59       34.0       0.00       0.00
8:25am            175        7.0       12.0         64       34.9      29.58       24.0      0.028       20.0       20.0         73       41.1         59       34.0       0.00       0.00
8:30am            168        7.0       13.0         64       34.9      29.59       24.0      0.033       20.0       20.0         73       41.1         59       34.0       0.00       0.00
8:35am            275        4.0       13.0         63       34.9      29.59       23.6      0.031       20.0       20.0         73       41.1         59       34.0       0.00       0.00
8:40am            265        2.0       13.0         63       34.9      29.59       23.6      0.028       20.0       20.0         73       41.1         59       34.0       0.00       0.00
8:45am            149        3.0       13.0         63       35.0      29.60       23.7      0.032       20.0       20.0         73       41.1         59       34.0       0.00       0.00
8:50am            159        0.0       13.0         63       35.0      29.60       23.7      0.029       20.0       20.0         73       41.1         59       34.0       0.00       0.00
8:55am            262        3.0       13.0         63       35.2      29.60       23.9      0.027       20.0       20.0         73       41.1         59       34.0       0.00       0.00
9:00am            159        2.0       13.0         62       35.3      29.60       23.6      0.028       20.0       20.0         73       41.1         59       34.0       0.00       0.00
9:05am            145        2.0       10.0         62       35.5      29.60       23.8      0.026       20.0       20.0         73       41.1         59       34.0       0.00       0.00
9:10am            145        1.0       10.0         62       35.6      29.60       23.9      0.023       20.0       20.0         73       41.1         59       34.0       0.00       0.00
9:15am            151        3.0       11.0         61       35.9      29.61       23.8      0.032       20.0       20.0         73       41.1         59       34.0       0.00       0.00
9:20am            149        8.0       11.0         62       36.0      29.61       24.3      0.030       20.0       20.0         73       41.1         59       34.0       0.00       0.00
9:25am            175        2.0       11.0         61       36.2      29.61       24.1      0.027       20.0       20.0         73       41.1         59       34.0       0.00       0.00
9:30am            129        7.0       11.0         61       36.3      29.61       24.2      0.027       20.0       20.0         73       41.1         59       34.0       0.00       0.00
9:35am            152        1.0       11.0         61       36.3      29.61       24.2      0.025       20.0       20.0         73       41.1         59       34.0       0.00       0.00
9:40am            136        1.0       11.0         61       36.6      29.61       24.4      0.023       20.0       20.0         73       41.1         59       34.0       0.00       0.00
9:45am            125        0.0       11.0         61       36.8      29.63       24.6      0.033       20.0       20.0         73       41.1         59       34.0       0.00       0.00
9:50am            125        4.0       11.0         60       36.8      29.63       24.2      0.030       20.0       20.0         73       41.1         59       34.0       0.00       0.00
9:55am            165        2.0       11.0         60       36.8      29.63       24.2      0.028       20.0       20.0         73       41.1         59       34.0       0.00       0.00
10:00am           175        5.0       11.0         60       36.8      29.64       24.2      0.036       20.0       20.0         73       41.1         59       34.0       0.00       0.00
10:05am           175        2.0       13.0         60       36.6      29.64       24.0      0.033       20.0       20.0         73       41.1         59       34.0       0.00       0.00
10:10am           153        0.0       13.0         60       36.6      29.64       24.0      0.030       20.0       20.0         73       41.1         59       34.0       0.00       0.00
10:15am           235        1.0       13.0         61       36.6      29.64       24.4      0.035       20.0       20.0         73       41.1         59       34.0       0.00       0.00
10:20am           249        2.0       13.0         61       36.6      29.64       24.4      0.032       20.0       20.0         73       41.1         59       34.0       0.00       0.00
10:25am           139        1.0       16.0         61       36.6      29.64       24.4      0.029       20.0       20.0         73       41.1         59       34.0       0.00       0.00
10:30am           252        0.0       16.0         60       36.5      29.65       23.9      0.031       20.0       20.0         73       41.1         59       34.0       0.00       0.00
10:35am           131        2.0       16.0         60       36.5      29.65       23.9      0.028       20.0       20.0         73       41.1         59       34.0       0.00       0.00
10:40am           139        2.0       16.0         60       36.5      29.65       23.9      0.026       20.0       20.0         73       41.1         59       34.0       0.00       0.00
10:45am           272        0.0       16.0         61       36.5      29.66       24.3      0.033       20.0       20.0         73       41.1         59       34.0       0.00       0.00
10:50am           160        2.0       16.0         61       36.6      29.66       24.4      0.030       20.0       20.0         73       41.1         59       34.0       0.00       0.00
10:55am           152        0.0       16.0         61       36.8      29.66       24.6      0.028       20.0       20.0         73       41.1         59       34.0       0.00       0.00
11:00am           237        2.0       16.0         60       36.9      29.66       24.3      0.030       20.0       20.0         73       41.1         59       34.0       0.00       0.00
11:05am           155        1.0       13.0         60       36.9      29.66       24.3      0.027       20.0       20.0         73       41.1         59       34.0       0.00       0.00
11:10am           175        2.0       13.0         60       37.2      29.66       24.6      0.025       20.0       20.0         73       41.1         59       34.0       0.00       0.00
11:15am           141        3.0       13.0         60       37.2      29.66       24.6      0.024       20.0       20.0         73       41.1         59       34.0       0.00       0.00
11:20am           131        0.0       13.0         60       37.0      29.66       24.4      0.022       20.0       20.0         73       41.1         59       34.0       0.00       0.00
11:25am           269        6.0       13.0         59       36.9      29.66       23.9      0.020       20.0       20.0         73       41.1         59       34.0       0.00       0.00
11:30am           255        1.0       13.0         60       36.6      29.67       24.0      0.030       20.0       20.0         73       41.1         59       34.0       0.00       0.00
11:35am           156        1.0       13.0         59       36.5      29.67       23.5      0.028       20.0       20.0         73       41.1         59       34.0       0.00       0.00
11:40am           249        2.0       13.0         60       36.3      29.67       23.8      0.026       20.0       20.0         73       41.1         59       34.0       0.00       0.00
11:45am           278        0.0       13.0         60       36.3      29.68       23.8      0.028       20.0       20.0         73       41.1         59       34.0       0.00       0.00
11:50am           247        1.0       13.0         60       36.3      29.68       23.8      0.025       20.0       20.0         73       41.1         59       34.0       0.00       0.00
11:55am           151        2.0       13.0         60       36.5      29.68       23.9      0.023       20.0       20.0         73       41.1         59       34.0       0.00       0.00


Yesterday's Data File

11/23/14
Time         Wind Dir   Wind Spd  Wind Gust   Humidity       Temp  Raw Barom  Dew Point Barom Rate Wind Spd H WindGust H Humidity H Temp Out H Humidity L Temp Out L  DailyRain   24HrRain
                            mph        mph          %         F         in         F      in/hr        mph        mph          %         F          %         F         in         in
12:00am           139        3.0       11.0         84       54.2      29.57       49.5     -0.014       11.0       11.0         84       54.2         84       54.2       0.00       0.00
12:05am           104        5.0        7.0         84       54.1      29.57       49.4     -0.013       11.0       11.0         84       54.2         84       54.1       0.00       0.00
12:10am            67        5.0        8.0         85       53.9      29.57       49.5     -0.012       11.0       11.0         85       54.2         84       53.9       0.00       0.00
12:15am            69        5.0       10.0         85       53.9      29.56       49.5     -0.018       11.0       11.0         85       54.2         84       53.9       0.00       0.00
12:20am            93        6.0       11.0         85       53.8      29.56       49.4     -0.016       11.0       11.0         85       54.2         84       53.8       0.00       0.00
12:25am            88        5.0       11.0         85       53.8      29.56       49.4     -0.015       11.0       11.0         85       54.2         84       53.8       0.00       0.00
12:30am            93        2.0       11.0         85       53.6      29.56       49.2     -0.016       11.0       11.0         85       54.2         84       53.6       0.00       0.00
12:35am            80        7.0       11.0         85       53.6      29.56       49.2     -0.015       11.0       11.0         85       54.2         84       53.6       0.00       0.00
12:40am           107        3.0       11.0         85       53.6      29.56       49.2     -0.013       11.0       11.0         85       54.2         84       53.6       0.00       0.00
12:45am            70        6.0       11.0         85       53.6      29.55       49.2     -0.024       11.0       11.0         86       54.2         84       53.6       0.00       0.00
12:50am            69        2.0       11.0         86       53.6      29.55       49.5     -0.022       11.0       11.0         86       54.2         84       53.6       0.00       0.00
12:55am            69        0.0       11.0         86       53.5      29.55       49.4     -0.020       11.0       11.0         86       54.2         84       53.5       0.00       0.00
1:00am            103        3.0       11.0         86       53.5      29.54       49.4     -0.028       11.0       11.0         86       54.2         84       53.5       0.00       0.00
1:05am             77        3.0        7.0         86       53.5      29.54       49.4     -0.025       11.0       11.0         86       54.2         84       53.5       0.00       0.00
1:10am             66        5.0        8.0         86       53.5      29.54       49.4     -0.023       11.0       11.0         86       54.2         84       53.5       0.00       0.00
1:15am             74        5.0        8.0         86       53.5      29.53       49.4     -0.030       11.0       11.0         86       54.2         84       53.5       0.00       0.00
1:20am             70        0.0        8.0         86       53.5      29.53       49.4     -0.028       11.0       11.0         86       54.2         84       53.5       0.00       0.00
1:25am             86        1.0        8.0         86       53.5      29.53       49.4     -0.026       11.0       11.0         86       54.2         84       53.5       0.00       0.00
1:30am             86        3.0        8.0         86       53.5      29.52       49.4     -0.032       11.0       11.0         86       54.2         84       53.5       0.00       0.00
1:35am             57        0.0        8.0         86       53.3      29.52       49.2     -0.029       11.0       11.0         86       54.2         84       53.3       0.00       0.00
1:40am             48        5.0       10.0         86       53.3      29.52       49.2     -0.027       11.0       11.0         86       54.2         84       53.3       0.00       0.00
1:45am             48        4.0       10.0         86       53.3      29.52       49.2     -0.023       11.0       11.0         86       54.2         84       53.3       0.00       0.00
1:50am             77        1.0       10.0         86       53.3      29.52       49.2     -0.021       11.0       11.0         86       54.2         84       53.3       0.00       0.00
1:55am             72        1.0       10.0         86       53.2      29.52       49.1     -0.019       11.0       11.0         86       54.2         84       53.2       0.00       0.00
2:00am             72        3.0       10.0         86       53.2      29.52       49.1     -0.025       11.0       11.0         86       54.2         84       53.2       0.00       0.00
2:05am             69        1.0        6.0         86       53.2      29.52       49.1     -0.023       11.0       11.0         86       54.2         84       53.2       0.00       0.00
2:10am             62        5.0        6.0         86       53.2      29.52       49.1     -0.022       11.0       11.0         86       54.2         84       53.2       0.00       0.00
2:15am             62        5.0        6.0         86       53.1      29.51       49.0     -0.023       11.0       11.0         86       54.2         84       53.1       0.00       0.00
2:20am             45        7.0       10.0         87       53.1      29.51       49.3     -0.021       11.0       11.0         87       54.2         84       53.1       0.00       0.00
2:25am             56        6.0       10.0         87       53.1      29.51       49.3     -0.019       11.0       11.0         87       54.2         84       53.1       0.00       0.00
2:30am             53        0.0       10.0         87       53.1      29.50       49.3     -0.029       11.0       11.0         87       54.2         84       53.1       0.00       0.00
2:35am             55        3.0       10.0         87       52.9      29.50       49.1     -0.026       11.0       11.0         87       54.2         84       52.9       0.00       0.00
2:40am             57        5.0       10.0         88       52.9      29.50       49.4     -0.024       11.0       11.0         88       54.2         84       52.9       0.00       0.00
2:45am             63        2.0       10.0         88       52.9      29.50       49.4     -0.025       11.0       11.0         88       54.2         84       52.9       0.00       0.00
2:50am             63        1.0       10.0         88       52.8      29.50       49.4     -0.023       11.0       11.0         88       54.2         84       52.8       0.00       0.00
2:55am             69        2.0       10.0         89       52.8      29.50       49.7     -0.021       11.0       11.0         89       54.2         84       52.8       0.00       0.00
3:00am             70        3.0       10.0         89       52.6      29.49       49.5     -0.032       11.0       11.0         89       54.2         84       52.6       0.00       0.00
3:05am             64        0.0        6.0         89       52.6      29.49       49.5     -0.030       11.0       11.0         89       54.2         84       52.6       0.00       0.00
3:10am             64        1.0        6.0         89       52.6      29.49       49.5     -0.027       11.0       11.0         89       54.2         84       52.6       0.00       0.00
3:15am             55        2.0        8.0         89       52.5      29.48       49.4     -0.036       11.0       11.0         89       54.2         84       52.5       0.00       0.00
3:20am            100        2.0        8.0         90       52.5      29.48       49.7     -0.033       11.0       11.0         90       54.2         84       52.5       0.00       0.00
3:25am             98        1.0        8.0         90       52.5      29.48       49.7     -0.031       11.0       11.0         90       54.2         84       52.5       0.00       0.00
3:30am             98        0.0        8.0         90       52.5      29.47       49.7     -0.034       11.0       11.0         90       54.2         84       52.5       0.00       0.00
3:35am             98        0.0        8.0         90       52.5      29.47       49.7     -0.031       11.0       11.0         90       54.2         84       52.5       0.00       0.00
3:40am             98        0.0        8.0         90       52.5      29.47       49.7     -0.029       11.0       11.0         90       54.2         84       52.5       0.00       0.00
3:45am            100        0.0        8.0         91       52.5      29.46       50.0     -0.031       11.0       11.0         91       54.2         84       52.5       0.00       0.00
3:50am             98        3.0        8.0         91       52.5      29.46       50.0     -0.029       11.0       11.0         91       54.2         84       52.5       0.00       0.00
3:55am            100        2.0        8.0         91       52.5      29.46       50.0     -0.027       11.0       11.0         91       54.2         84       52.5       0.00       0.00
4:00am             72        4.0        8.0         91       52.5      29.45       50.0     -0.034       11.0       11.0         91       54.2         84       52.5       0.00       0.00
4:05am             72        0.0        5.0         91       52.5      29.45       50.0     -0.032       11.0       11.0         91       54.2         84       52.5       0.00       0.00
4:10am             73        1.0        5.0         91       52.5      29.45       50.0     -0.029       11.0       11.0         91       54.2         84       52.5       0.00       0.00
4:15am             80        3.0        5.0         91       52.5      29.45       50.0     -0.029       11.0       11.0         91       54.2         84       52.5       0.00       0.00
4:20am             83        3.0        6.0         91       52.5      29.45       50.0     -0.026       11.0       11.0         91       54.2         84       52.5       0.00       0.00
4:25am             81        0.0        6.0         91       52.5      29.45       50.0     -0.024       11.0       11.0         91       54.2         84       52.5       0.00       0.00
4:30am             81        3.0        6.0         91       52.5      29.45       50.0     -0.022       11.0       11.0         91       54.2         84       52.5       0.00       0.00
4:35am             81        3.0        6.0         91       52.5      29.45       50.0     -0.021       11.0       11.0         91       54.2         84       52.5       0.00       0.00
4:40am             81        5.0        6.0         91       52.5      29.45       50.0     -0.019       11.0       11.0         91       54.2         84       52.5       0.00       0.00
4:45am             80        1.0        6.0         91       52.5      29.45       50.0     -0.023       11.0       11.0         91       54.2         84       52.5       0.00       0.00
4:50am             80        0.0        6.0         91       52.6      29.45       50.1     -0.021       11.0       11.0         91       54.2         84       52.5       0.00       0.00
4:55am             80        2.0        6.0         91       52.6      29.45       50.1     -0.020       11.0       11.0         91       54.2         84       52.5       0.00       0.00
5:00am             83        2.0        6.0         91       52.6      29.44       50.1     -0.028       11.0       11.0         91       54.2         84       52.5       0.00       0.00
5:05am             81        3.0        4.0         91       52.8      29.44       50.3     -0.026       11.0       11.0         91       54.2         84       52.5       0.00       0.00
5:10am             83        2.0        4.0         91       52.8      29.44       50.3     -0.024       11.0       11.0         91       54.2         84       52.5       0.00       0.00
5:15am             80        6.0        6.0         91       52.8      29.43       50.3     -0.025       11.0       11.0         91       54.2         84       52.5       0.00       0.00
5:20am             80        4.0        6.0         91       52.9      29.43       50.3     -0.023       11.0       11.0         91       54.2         84       52.5       0.00       0.00
5:25am             80        2.0        6.0         91       52.9      29.43       50.3     -0.021       11.0       11.0         91       54.2         84       52.5       0.00       0.00
5:30am             80        1.0        6.0         91       52.9      29.43       50.3     -0.025       11.0       11.0         91       54.2         84       52.5       0.00       0.00
5:35am             81        6.0        7.0         91       53.1      29.43       50.5     -0.023       11.0       11.0         91       54.2         84       52.5       0.00       0.00
5:40am             53        5.0        7.0         91       53.1      29.43       50.5     -0.021       11.0       11.0         91       54.2         84       52.5       0.00       0.00
5:45am             67        1.0        7.0         91       53.1      29.42       50.5     -0.028       11.0       11.0         91       54.2         84       52.5       0.00       0.00
5:50am             70        0.0        7.0         90       53.2      29.42       50.3     -0.025       11.0       11.0         91       54.2         84       52.5       0.00       0.00
5:55am             86        3.0        7.0         91       53.2      29.42       50.6     -0.023       11.0       11.0         91       54.2         84       52.5       0.00       0.00
6:00am             93        0.0        7.0         91       53.2      29.41       50.6     -0.028       11.0       11.0         91       54.2         84       52.5       0.00       0.00
6:05am             91        0.0        3.0         91       53.2      29.41       50.6     -0.026       11.0       11.0         91       54.2         84       52.5       0.00       0.00
6:10am             91        0.0        6.0         91       53.2      29.41       50.6     -0.024       11.0       11.0         91       54.2         84       52.5       0.00       0.00
6:15am             91        0.0        6.0         91       53.2      29.41       50.6     -0.022       11.0       11.0         91       54.2         84       52.5       0.00       0.00
6:20am             88        2.0        6.0         91       53.3      29.41       50.7     -0.020       11.0       11.0         91       54.2         84       52.5       0.00       0.00
6:25am             88        0.0        6.0         91       53.3      29.41       50.7     -0.019       11.0       11.0         91       54.2         84       52.5       0.00       0.00
6:30am             88        1.0        6.0         91       53.3      29.41       50.7     -0.019       11.0       11.0         91       54.2         84       52.5       0.00       0.00
6:35am             90        3.0        6.0         91       53.3      29.41       50.7     -0.018       11.0       11.0         91       54.2         84       52.5       0.00       0.00
6:40am             88        0.0        6.0         91       53.5      29.41       50.9     -0.016       11.0       11.0         91       54.2         84       52.5       0.00       0.00
6:45am             84        2.0        6.0         92       53.5      29.40       51.2     -0.023       11.0       11.0         92       54.2         84       52.5       0.00       0.00
6:50am             84        0.0        6.0         92       53.5      29.40       51.2     -0.021       11.0       11.0         92       54.2         84       52.5       0.00       0.00
6:55am             86        0.0        6.0         92       53.6      29.40       51.3     -0.019       11.0       11.0         92       54.2         84       52.5       0.00       0.00
7:00am             86        5.0        6.0         92       53.6      29.40       51.3     -0.020       11.0       11.0         92       54.2         84       52.5       0.00       0.00
7:05am             83        2.0        6.0         92       53.8      29.40       51.5     -0.018       11.0       11.0         92       54.2         84       52.5       0.00       0.00
7:10am             83        0.0        6.0         92       53.8      29.40       51.5     -0.017       11.0       11.0         92       54.2         84       52.5       0.00       0.00
7:15am             83        0.0        6.0         92       53.9      29.40       51.6     -0.019       11.0       11.0         92       54.2         84       52.5       0.00       0.00
7:20am             74        2.0        7.0         92       53.9      29.40       51.6     -0.018       11.0       11.0         92       54.2         84       52.5       0.00       0.00
7:25am             90        0.0        7.0         92       54.1      29.40       51.8     -0.016       11.0       11.0         92       54.2         84       52.5       0.00       0.00
7:30am             91        0.0        7.0         92       54.1      29.39       51.8     -0.017       11.0       11.0         92       54.2         84       52.5       0.00       0.00
7:35am             90        2.0        7.0         92       54.2      29.39       51.9     -0.016       11.0       11.0         92       54.2         84       52.5       0.00       0.00
7:40am             90        3.0        7.0         92       54.2      29.39       51.9     -0.014       11.0       11.0         92       54.2         84       52.5       0.00       0.00
7:45am             87        1.0        7.0         92       54.4      29.39       52.1     -0.017       11.0       11.0         92       54.4         84       52.5       0.00       0.00
7:50am             88        0.0        7.0         92       54.4      29.39       52.1     -0.016       11.0       11.0         92       54.4         84       52.5       0.00       0.00
7:55am             88        0.0        7.0         92       54.4      29.39       52.1     -0.015       11.0       11.0         92       54.4         84       52.5       0.00       0.00
8:00am             87        0.0        7.0         92       54.4      29.39       52.1     -0.016       11.0       11.0         92       54.4         84       52.5       0.00       0.00
8:05am             87        0.0        3.0         93       54.4      29.39       52.4     -0.015       11.0       11.0         93       54.4         84       52.5       0.00       0.00
8:10am             88        0.0        3.0         93       54.4      29.39       52.4     -0.014       11.0       11.0         93       54.4         84       52.5       0.00       0.00
8:15am             87        0.0        3.0         93       54.4      29.39       52.4     -0.012       11.0       11.0         93       54.4         84       52.5       0.00       0.00
8:20am             87        1.0        3.0         93       54.4      29.39       52.4     -0.011       11.0       11.0         93       54.4         84       52.5       0.00       0.00
8:25am             87        0.0        3.0         93       54.5      29.39       52.5     -0.010       11.0       11.0         93       54.5         84       52.5       0.00       0.00
8:30am             88        0.0        3.0         93       54.5      29.39       52.5     -0.012       11.0       11.0         93       54.5         84       52.5       0.00       0.00
8:35am             88        0.0        3.0         93       54.5      29.39       52.5     -0.011       11.0       11.0         93       54.5         84       52.5       0.00       0.00
8:40am             88        0.0        3.0         93       54.5      29.39       52.5     -0.010       11.0       11.0         93       54.5         84       52.5       0.00       0.00
8:45am             88        0.0        3.0         93       54.5      29.38       52.5     -0.012       11.0       11.0         93       54.5         84       52.5       0.00       0.00
8:50am             88        0.0        3.0         93       54.5      29.38       52.5     -0.011       11.0       11.0         93       54.5         84       52.5       0.00       0.00
8:55am             87        0.0        3.0         93       54.5      29.38       52.5     -0.010       11.0       11.0         93       54.5         84       52.5       0.00       0.00
9:00am             87        0.0        3.0         93       54.5      29.38       52.5     -0.015       11.0       11.0         93       54.5         84       52.5       0.00       0.00
9:05am             87        0.0        1.0         93       54.7      29.38       52.7     -0.013       11.0       11.0         93       54.7         84       52.5       0.00       0.00
9:10am             87        0.0        1.0         93       54.7      29.38       52.7     -0.012       11.0       11.0         93       54.7         84       52.5       0.00       0.00
9:15am             88        0.0        1.0         93       54.7      29.38       52.7     -0.012       11.0       11.0         93       54.7         84       52.5       0.00       0.00
9:20am             87        0.0        2.0         94       54.7      29.38       53.0     -0.011       11.0       11.0         94       54.7         84       52.5       0.00       0.00
9:25am             87        0.0        2.0         94       54.8      29.38       53.1     -0.010       11.0       11.0         94       54.8         84       52.5       0.00       0.00
9:30am             88        0.0        2.0         94       54.8      29.37       53.1     -0.014       11.0       11.0         94       54.8         84       52.5       0.00       0.00
9:35am             88        0.0        2.0         94       55.0      29.37       53.3     -0.012       11.0       11.0         94       55.0         84       52.5       0.00       0.00
9:40am             87        0.0        2.0         94       55.0      29.37       53.3     -0.011       11.0       11.0         94       55.0         84       52.5       0.00       0.00
9:45am             87        0.0        2.0         94       55.1      29.36       53.4     -0.022       11.0       11.0         94       55.1         84       52.5       0.00       0.00
9:50am             87        0.0        2.0         94       55.3      29.36       53.6     -0.021       11.0       11.0         94       55.3         84       52.5       0.00       0.00
9:55am             88        0.0        2.0         94       55.4      29.36       53.7     -0.019       11.0       11.0         94       55.4         84       52.5       0.00       0.00
10:00am            88        0.0        2.0         94       55.6      29.35       53.9     -0.022       11.0       11.0         94       55.6         84       52.5       0.00       0.00
10:05am            87        0.0        0.0         94       55.6      29.35       53.9     -0.021       11.0       11.0         94       55.6         84       52.5       0.00       0.00
10:10am            88        0.0        0.0         94       55.7      29.35       54.0     -0.019       11.0       11.0         94       55.7         84       52.5       0.00       0.00
10:15am            87        0.0        0.0         94       55.9      29.34       54.2     -0.027       11.0       11.0         94       55.9         84       52.5       0.00       0.00
10:20am            87        0.0        0.0         94       55.9      29.34       54.2     -0.025       11.0       11.0         94       55.9         84       52.5       0.00       0.00
10:25am            88        0.0        0.0         94       55.9      29.34       54.2     -0.023       11.0       11.0         94       55.9         84       52.5       0.00       0.00
10:30am            88        0.0        0.0         94       55.9      29.34       54.2     -0.026       11.0       11.0         94       55.9         84       52.5       0.00       0.00
10:35am            88        0.0        0.0         94       55.7      29.34       54.0     -0.024       11.0       11.0         94       55.9         84       52.5       0.00       0.00
10:40am            88        0.0        0.0         94       55.7      29.34       54.0     -0.022       11.0       11.0         94       55.9         84       52.5       0.00       0.00
10:45am            88        0.0        0.0         94       55.7      29.34       54.0     -0.024       11.0       11.0         94       55.9         84       52.5       0.00       0.00
10:50am            88        0.0        0.0         94       55.7      29.34       54.0     -0.022       11.0       11.0         94       55.9         84       52.5       0.00       0.00
10:55am            88        0.0        0.0         94       55.7      29.34       54.0     -0.021       11.0       11.0         94       55.9         84       52.5       0.00       0.00
11:00am            88        0.0        0.0         94       55.9      29.33       54.2     -0.027       11.0       11.0         94       55.9         84       52.5       0.00       0.00
11:05am            88        0.0        0.0         94       55.9      29.33       54.2     -0.025       11.0       11.0         94       55.9         84       52.5       0.00       0.00
11:10am            88        0.0        0.0         94       55.9      29.33       54.2     -0.023       11.0       11.0         94       55.9         84       52.5       0.00       0.00
11:15am            88        0.0        0.0         94       56.0      29.31       54.3     -0.037       11.0       11.0         94       56.0         84       52.5       0.00       0.00
11:20am            88        0.0        0.0         94       55.9      29.31       54.2     -0.034       11.0       11.0         94       56.0         84       52.5       0.00       0.00
11:25am            88        0.0        0.0         94       55.9      29.31       54.2     -0.031       11.0       11.0         94       56.0         84       52.5       0.00       0.00
11:30am            88        0.0        0.0         94       55.9      29.30       54.2     -0.041       11.0       11.0         94       56.0         84       52.5       0.00       0.00
11:35am            88        0.0        1.0         94       55.9      29.30       54.2     -0.038       11.0       11.0         94       56.0         84       52.5       0.00       0.00
11:40am            88        0.0        2.0         94       56.0      29.30       54.3     -0.035       11.0       11.0         94       56.0         84       52.5       0.00       0.00
11:45am            88        0.0        2.0         94       56.0      29.29       54.3     -0.044       11.0       11.0         94       56.0         84       52.5       0.00       0.00
11:50am            88        1.0        2.0         94       56.2      29.29       54.5     -0.040       11.0       11.0         94       56.2         84       52.5       0.00       0.00
11:55am            88        0.0        2.0         94       56.2      29.29       54.5     -0.037       11.0       11.0         94       56.2         84       52.5       0.00       0.00
12:00pm            88        0.0        2.0         94       56.3      29.28       54.6     -0.044       11.0       11.0         94       56.3         84       52.5       0.00       0.00
12:05pm            88        0.0        0.0         94       56.3      29.28       54.6     -0.041       11.0       11.0         94       56.3         84       52.5       0.00       0.00
12:10pm            88        0.0        2.0         94       56.3      29.28       54.6     -0.037       11.0       11.0         95       56.5         84       52.5       0.00       0.00
12:15pm            88        0.0        2.0         94       56.3      29.26       54.6     -0.047       11.0       11.0         95       56.5         84       52.5       0.00       0.00
12:20pm            88        0.0        2.0         94       56.3      29.26       54.6     -0.043       11.0       11.0         95       56.5         84       52.5       0.00       0.00
12:25pm            88        0.0        2.0         94       56.3      29.26       54.6     -0.040       11.0       11.0         95       56.5         84       52.5       0.00       0.00
12:30pm            88        0.0        2.0         94       56.5      29.25       54.8     -0.048       11.0       11.0         95       56.5         84       52.5       0.00       0.00
12:35pm            88        0.0        2.0         94       56.5      29.25       54.8     -0.044       11.0       11.0         95       56.5         84       52.5       0.00       0.00
12:40pm            88        0.0        2.0         94       56.5      29.25       54.8     -0.040       11.0       11.0         95       56.5         84       52.5       0.00       0.00
12:45pm            88        0.0        2.0         94       56.5      29.25       54.8     -0.043       11.0       11.0         95       56.5         84       52.5       0.00       0.00
12:50pm            88        0.0        2.0         94       56.5      29.25       54.8     -0.039       11.0       11.0         95       56.5         84       52.5       0.00       0.00
12:55pm            88        0.0        2.0         94       56.6      29.25       54.9     -0.036       11.0       11.0         95       56.6         84       52.5       0.00       0.00
1:00pm             88        0.0        2.0         94       56.6      29.24       54.9     -0.045       11.0       11.0         95       56.6         84       52.5       0.00       0.00
1:05pm             88        0.0        0.0         94       56.6      29.24       54.9     -0.042       11.0       11.0         95       56.6         84       52.5       0.00       0.00
1:10pm             88        0.0        0.0         94       56.6      29.24       54.9     -0.038       11.0       11.0         95       56.6         84       52.5       0.00       0.00
1:15pm             88        0.0        0.0         94       56.6      29.23       54.9     -0.043       11.0       11.0         95       56.6         84       52.5       0.00       0.00
1:20pm             88        0.0        0.0         94       56.6      29.23       54.9     -0.040       11.0       11.0         95       56.6         84       52.5       0.00       0.00
1:25pm             88        0.0        0.0         94       56.6      29.23       54.9     -0.036       11.0       11.0         95       56.6         84       52.5       0.00       0.00
1:30pm             88        0.0        0.0         94       56.5      29.22       54.8     -0.041       11.0       11.0         95       56.6         84       52.5       0.00       0.00
1:35pm             88        0.0        0.0         94       56.5      29.22       54.8     -0.038       11.0       11.0         95       56.6         84       52.5       0.00       0.00
1:40pm             88        0.0        0.0         94       56.5      29.22       54.8     -0.035       11.0       11.0         95       56.6         84       52.5       0.00       0.00
1:45pm             88        0.0        0.0         94       56.5      29.22       54.8     -0.034       11.0       11.0         95       56.6         84       52.5       0.00       0.00
1:50pm             88        0.0        0.0         94       56.5      29.22       54.8     -0.031       11.0       11.0         95       56.6         84       52.5       0.00       0.00
1:55pm             88        0.0        0.0         94       56.5      29.22       54.8     -0.029       11.0       11.0         95       56.6         84       52.5       0.00       0.00
2:00pm             88        0.0        0.0         94       56.5      29.22       54.8     -0.028       11.0       11.0         95       56.6         84       52.5       0.00       0.00
2:05pm             88        0.0        0.0         94       56.5      29.22       54.8     -0.025       11.0       11.0         95       56.6         84       52.5       0.00       0.00
2:10pm             88        0.0        0.0         95       56.5      29.22       55.1     -0.023       11.0       11.0         95       56.6         84       52.5       0.00       0.00
2:15pm             88        0.0        0.0         95       56.6      29.21       55.2     -0.026       11.0       11.0         95       56.6         84       52.5       0.00       0.00
2:20pm             88        0.0        0.0         95       56.6      29.21       55.2     -0.024       11.0       11.0         95       56.6         84       52.5       0.00       0.00
2:25pm             88        0.0        0.0         95       56.6      29.21       55.2     -0.022       11.0       11.0         95       56.6         84       52.5       0.00       0.00
2:30pm             88        0.0        0.0         95       56.6      29.20       55.2     -0.028       11.0       11.0         95       56.6         84       52.5       0.00       0.00
2:35pm             88        0.0        0.0         95       56.7      29.20       55.3     -0.025       11.0       11.0         95       56.7         84       52.5       0.00       0.00
2:40pm             88        0.0        0.0         95       56.7      29.20       55.3     -0.023       11.0       11.0         95       56.7         84       52.5       0.00       0.00
2:45pm             88        0.0        1.0         95       56.9      29.20       55.5     -0.022       11.0       11.0         95       56.9         84       52.5       0.00       0.00
2:50pm             88        0.0        1.0         95       56.9      29.20       55.5     -0.021       11.0       11.0         95       56.9         84       52.5       0.00       0.00
2:55pm             88        0.0        1.0         95       56.9      29.20       55.5     -0.019       11.0       11.0         95       56.9         84       52.5       0.00       0.00
3:00pm             88        0.0        1.0         95       56.7      29.20       55.3     -0.018       11.0       11.0         95       56.9         84       52.5       0.00       0.00
3:05pm             88        0.0        0.0         95       56.7      29.20       55.3     -0.017       11.0       11.0         95       56.9         84       52.5       0.00       0.00
3:10pm             88        0.0        0.0         95       56.7      29.20       55.3     -0.016       11.0       11.0         95       56.9         84       52.5       0.00       0.00
3:15pm             88        0.0        0.0         95       56.7      29.20       55.3     -0.015       11.0       11.0         95       56.9         84       52.5       0.00       0.00
3:20pm             88        0.0        0.0         95       56.7      29.20       55.3     -0.014       11.0       11.0         95       56.9         84       52.5       0.00       0.00
3:25pm             88        0.0        0.0         95       56.7      29.20       55.3     -0.013       11.0       11.0         95       56.9         84       52.5       0.00       0.00
3:30pm             88        0.0        0.0         95       56.7      29.19       55.3     -0.024       11.0       11.0         95       56.9         84       52.5       0.00       0.00
3:35pm             88        0.0        0.0         95       56.7      29.19       55.3     -0.022       11.0       11.0         95       56.9         84       52.5       0.00       0.00
3:40pm             88        0.0        0.0         95       56.7      29.19       55.3     -0.020       11.0       11.0         95       56.9         84       52.5       0.00       0.00
3:45pm             88        0.0        2.0         95       56.6      29.19       55.2     -0.015       11.0       11.0         95       56.9         84       52.5       0.00       0.00
3:50pm             88        0.0        2.0         94       56.5      29.19       54.8     -0.013       11.0       11.0         95       56.9         84       52.5       0.00       0.00
3:55pm             88        0.0        2.0         94       56.3      29.19       54.6     -0.012       11.0       11.0         95       56.9         84       52.5       0.00       0.00
4:00pm             88        1.0        2.0         94       56.2      29.19       54.5     -0.013       11.0       11.0         95       56.9         84       52.5       0.00       0.00
4:05pm             96        0.0        2.0         94       56.0      29.19       54.3     -0.012       11.0       11.0         95       56.9         84       52.5       0.00       0.00
4:10pm             96        0.0        2.0         94       55.9      29.19       54.2     -0.011       11.0       11.0         95       56.9         84       52.5       0.00       0.00
4:15pm             96        0.0        2.0         94       55.7      29.19       54.0     -0.012       11.0       11.0         95       56.9         84       52.5       0.00       0.00
4:20pm             96        0.0        2.0         94       55.6      29.19       53.9     -0.011       11.0       11.0         95       56.9         84       52.5       0.00       0.00
4:25pm            231        8.0       12.0         94       55.3      29.19       53.6     -0.010       12.0       12.0         95       56.9         84       52.5       0.00       0.00
4:30pm            258        5.0       13.0         93       53.8      29.20       51.8      0.005       13.0       13.0         95       56.9         84       52.5       0.00       0.00
4:35pm            282        3.0       13.0         92       52.0      29.20       49.8      0.005       13.0       13.0         95       56.9         84       52.0       0.00       0.00
4:40pm            276        5.0       14.0         93       50.7      29.20       48.8      0.004       14.0       14.0         95       56.9         84       50.7       0.00       0.00
4:45pm            302        5.0       16.0         93       49.8      29.21       47.9      0.012       16.0       16.0         95       56.9         84       49.8       0.00       0.00
4:50pm            258        3.0       16.0         93       49.2      29.21       47.3      0.011       16.0       16.0         95       56.9         84       49.2       0.00       0.00
4:55pm            280        7.0       16.0         93       48.8      29.21       46.9      0.010       16.0       16.0         95       56.9         84       48.8       0.00       0.00
5:00pm            271        7.0       16.0         93       48.2      29.22       46.3      0.018       16.0       16.0         95       56.9         84       48.2       0.00       0.00
5:05pm            261        2.0       12.0         94       47.7      29.22       46.1      0.017       16.0       16.0         95       56.9         84       47.7       0.00       0.00
5:10pm            266       10.0       13.0         93       47.4      29.22       45.5      0.015       16.0       16.0         95       56.9         84       47.4       0.00       0.00
5:15pm            255        5.0       13.0         94       47.1      29.23       45.5      0.026       16.0       16.0         95       56.9         84       47.1       0.00       0.00
5:20pm            262        5.0       13.0         94       47.0      29.23       45.4      0.024       16.0       16.0         95       56.9         84       47.0       0.00       0.00
5:25pm            258        2.0       19.0         93       46.8      29.23       44.9      0.022       19.0       19.0         95       56.9         84       46.8       0.00       0.00
5:30pm            269        1.0       19.0         93       46.5      29.24       44.6      0.025       19.0       19.0         95       56.9         84       46.5       0.00       0.00
5:35pm            303       10.0       19.0         93       46.2      29.24       44.3      0.023       19.0       19.0         95       56.9         84       46.2       0.00       0.00
5:40pm            262        1.0       19.0         93       46.1      29.24       44.2      0.021       19.0       19.0         95       56.9         84       46.1       0.00       0.00
5:45pm            173        8.0       19.0         93       46.0      29.25       44.1      0.029       19.0       19.0         95       56.9         84       46.0       0.00       0.00
5:50pm            258       10.0       19.0         93       45.8      29.25       43.9      0.027       19.0       19.0         95       56.9         84       45.8       0.00       0.00
5:55pm            249        3.0       19.0         93       45.7      29.25       43.8      0.025       19.0       19.0         95       56.9         84       45.7       0.00       0.00
6:00pm            256        6.0       19.0         93       45.5      29.25       43.6      0.020       19.0       19.0         95       56.9         84       45.5       0.00       0.00
6:05pm            254        6.0       17.0         93       45.4      29.25       43.5      0.018       19.0       19.0         95       56.9         84       45.4       0.00       0.00
6:10pm            282       10.0       17.0         93       45.2      29.25       43.3      0.017       19.0       19.0         95       56.9         84       45.2       0.00       0.00
6:15pm            280        5.0       17.0         93       44.9      29.25       43.0      0.020       19.0       19.0         95       56.9         84       44.9       0.00       0.00
6:20pm            304        8.0       17.0         92       44.8      29.25       42.6      0.019       19.0       19.0         95       56.9         84       44.8       0.00       0.00
6:25pm            173       10.0       17.0         92       44.5      29.25       42.3      0.017       19.0       19.0         95       56.9         84       44.5       0.00       0.00
6:30pm            259        5.0       17.0         92       44.3      29.26       42.1      0.028       19.0       19.0         95       56.9         84       44.3       0.00       0.00
6:35pm            272        2.0       17.0         92       44.3      29.26       42.1      0.026       19.0       19.0         95       56.9         84       44.3       0.00       0.00
6:40pm            275        4.0       17.0         92       44.3      29.26       42.1      0.023       19.0       19.0         95       56.9         84       44.3       0.00       0.00
6:45pm            244        4.0       17.0         92       44.2      29.27       42.0      0.026       19.0       19.0         95       56.9         84       44.2       0.00       0.00
6:50pm            232        7.0       17.0         92       44.2      29.27       42.0      0.024       19.0       19.0         95       56.9         84       44.2       0.00       0.00
6:55pm            252        6.0       20.0         91       44.1      29.27       41.6      0.022       20.0       20.0         95       56.9         84       44.1       0.00       0.00
7:00pm            280        6.0       20.0         91       43.9      29.28       41.4      0.031       20.0       20.0         95       56.9         84       43.9       0.00       0.00
7:05pm            272        5.0       17.0         91       43.9      29.28       41.4      0.028       20.0       20.0         95       56.9         84       43.9       0.00       0.00
7:10pm            299        3.0       19.0         91       43.8      29.28       41.3      0.026       20.0       20.0         95       56.9         84       43.8       0.00       0.00
7:15pm            264        3.0       19.0         91       43.6      29.29       41.2      0.041       20.0       20.0         95       56.9         84       43.6       0.00       0.00
7:20pm            266        2.0       19.0         91       43.5      29.29       41.1      0.037       20.0       20.0         95       56.9         84       43.5       0.00       0.00
7:25pm            285        5.0       19.0         90       43.2      29.29       40.5      0.034       20.0       20.0         95       56.9         84       43.2       0.00       0.00
7:30pm            264        6.0       19.0         90       43.1      29.30       40.4      0.037       20.0       20.0         95       56.9         84       43.1       0.00       0.00
7:35pm            273        7.0       19.0         90       42.9      29.30       40.2      0.034       20.0       20.0         95       56.9         84       42.9       0.00       0.00
7:40pm            254        2.0       19.0         90       42.8      29.30       40.1      0.031       20.0       20.0         95       56.9         84       42.8       0.00       0.00
7:45pm            261        3.0       19.0         90       42.8      29.30       40.1      0.028       20.0       20.0         95       56.9         84       42.8       0.00       0.00
7:50pm            247        8.0       19.0         90       42.6      29.30       39.9      0.025       20.0       20.0         95       56.9         84       42.6       0.00       0.00
7:55pm            256       16.0       19.0         90       42.5      29.30       39.8      0.023       20.0       20.0         95       56.9         84       42.5       0.00       0.00
8:00pm            272        6.0       22.0         90       42.1      29.31       39.4      0.033       22.0       22.0         95       56.9         84       42.1       0.00       0.00
8:05pm            247        5.0       15.0         90       41.8      29.31       39.1      0.031       22.0       22.0         95       56.9         84       41.8       0.00       0.00
8:10pm            170        5.0       15.0         90       41.6      29.31       38.9      0.028       22.0       22.0         95       56.9         84       41.6       0.00       0.00
8:15pm            266        6.0       17.0         89       41.5      29.32       38.5      0.035       22.0       22.0         95       56.9         84       41.5       0.00       0.00
8:20pm            268       11.0       21.0         89       41.3      29.32       38.3      0.032       22.0       22.0         95       56.9         84       41.3       0.00       0.00
8:25pm            237        5.0       21.0         89       41.2      29.32       38.2      0.029       22.0       22.0         95       56.9         84       41.2       0.00       0.00
8:30pm            173        2.0       21.0         89       40.8      29.33       37.8      0.035       22.0       22.0         95       56.9         84       40.8       0.00       0.00
8:35pm            266        6.0       21.0         88       40.5      29.33       37.2      0.032       22.0       22.0         95       56.9         84       40.5       0.00       0.00
8:40pm            238        2.0       21.0         88       40.5      29.33       37.2      0.030       22.0       22.0         95       56.9         84       40.5       0.00       0.00
8:45pm            136        6.0       21.0         88       40.2      29.33       36.9      0.032       22.0       22.0         95       56.9         84       40.2       0.00       0.00
8:50pm            272        2.0       21.0         88       40.1      29.33       36.8      0.030       22.0       22.0         95       56.9         84       40.1       0.00       0.00
8:55pm            242       11.0       21.0         88       39.8      29.33       36.5      0.027       22.0       22.0         95       56.9         84       39.8       0.00       0.00
9:00pm            276        2.0       21.0         88       39.6      29.33       36.3      0.027       22.0       22.0         95       56.9         84       39.6       0.00       0.00
9:05pm            245        2.0       21.0         88       39.3      29.33       36.0      0.025       22.0       22.0         95       56.9         84       39.3       0.00       0.00
9:10pm            259        2.0       21.0         88       39.3      29.33       36.0      0.023       22.0       22.0         95       56.9         84       39.3       0.00       0.00
9:15pm            255        5.0       21.0         89       39.3      29.34       36.3      0.030       22.0       22.0         95       56.9         84       39.3       0.00       0.00
9:20pm            247       11.0       21.0         89       39.3      29.34       36.3      0.027       22.0       22.0         95       56.9         84       39.3       0.00       0.00
9:25pm            279       11.0       21.0         89       39.3      29.34       36.3      0.025       22.0       22.0         95       56.9         84       39.3       0.00       0.00
9:30pm            254        6.0       21.0         89       39.3      29.34       36.3      0.025       22.0       22.0         95       56.9         84       39.3       0.00       0.00
9:35pm            252        5.0       21.0         89       39.3      29.34       36.3      0.023       22.0       22.0         95       56.9         84       39.3       0.00       0.00
9:40pm            247        6.0       21.0         88       39.5      29.34       36.2      0.021       22.0       22.0         95       56.9         84       39.3       0.00       0.00
9:45pm            268        5.0       21.0         88       39.5      29.34       36.2      0.019       22.0       22.0         95       56.9         84       39.3       0.00       0.00
9:50pm            278       11.0       21.0         88       39.5      29.34       36.2      0.017       22.0       22.0         95       56.9         84       39.3       0.00       0.00
9:55pm            254       10.0       21.0         88       39.5      29.34       36.2      0.016       22.0       22.0         95       56.9         84       39.3       0.00       0.00
10:00pm           245        5.0       21.0         88       39.5      29.34       36.2      0.015       22.0       22.0         95       56.9         84       39.3       0.00       0.00
10:05pm           261        2.0       10.0         88       39.6      29.34       36.3      0.013       22.0       22.0         95       56.9         84       39.3       0.00       0.00
10:10pm           288        4.0       10.0         88       39.6      29.34       36.3      0.012       22.0       22.0         95       56.9         84       39.3       0.00       0.00
10:15pm           249        2.0       10.0         88       39.6      29.34       36.3      0.008       22.0       22.0         95       56.9         84       39.3       0.00       0.00
10:20pm           269        6.0       10.0         88       39.8      29.34       36.5      0.008       22.0       22.0         95       56.9         84       39.3       0.00       0.00
10:25pm           276        3.0       10.0         88       39.8      29.34       36.5      0.007       22.0       22.0         95       56.9         84       39.3       0.00       0.00
10:30pm           261        0.0       10.0         88       39.8      29.34       36.5      0.007       22.0       22.0         95       56.9         84       39.3       0.00       0.00
10:35pm           268        0.0       10.0         88       39.9      29.34       36.6      0.006       22.0       22.0         95       56.9         84       39.3       0.00       0.00
10:40pm           268        5.0       12.0         88       39.9      29.34       36.6      0.006       22.0       22.0         95       56.9         84       39.3       0.00       0.00
10:45pm           272        2.0       12.0         88       39.9      29.34       36.6      0.006       22.0       22.0         95       56.9         84       39.3       0.00       0.00
10:50pm           258        1.0       12.0         87       40.1      29.34       36.5      0.006       22.0       22.0         95       56.9         84       39.3       0.00       0.00
10:55pm           265        4.0       12.0         87       40.1      29.34       36.5      0.005       22.0       22.0         95       56.9         84       39.3       0.00       0.00
11:00pm           259       17.0       17.0         85       40.2      29.34       36.1      0.004       22.0       22.0         95       56.9         84       39.3       0.00       0.00
11:05pm           278        2.0       17.0         84       40.3      29.34       35.9      0.003       22.0       22.0         95       56.9         84       39.3       0.00       0.00
11:10pm           264        1.0       17.0         83       40.5      29.34       35.8      0.003       22.0       22.0         95       56.9         83       39.3       0.00       0.00
11:15pm           273        1.0       17.0         82       40.5      29.34       35.4      0.007       22.0       22.0         95       56.9         82       39.3       0.00       0.00
11:20pm           232        3.0       17.0         80       40.5      29.34       34.8      0.006       22.0       22.0         95       56.9         80       39.3       0.00       0.00
11:25pm           156        2.0       17.0         79       40.6      29.34       34.6      0.006       22.0       22.0         95       56.9         79       39.3       0.00       0.00
11:30pm           266        2.0       17.0         78       40.8      29.35       34.5      0.008       22.0       22.0         95       56.9         78       39.3       0.00       0.00
11:35pm           151        0.0       17.0         77       40.8      29.35       34.2      0.008       22.0       22.0         95       56.9         77       39.3       0.00       0.00
11:40pm           265        1.0       17.0         76       40.9      29.35       33.9      0.007       22.0       22.0         95       56.9         76       39.3       0.00       0.00
11:45pm           259        5.0       17.0         76       40.9      29.35       33.9      0.010       22.0       22.0         95       56.9         76       39.3       0.00       0.00
11:50pm           261        3.0       17.0         75       40.9      29.35       33.6      0.010       22.0       22.0         95       56.9         75       39.3       0.00       0.00
11:55pm           268        7.0       18.0         74       40.9      29.35       33.3      0.009       22.0       22.0         95       56.9         74       39.3       0.00       0.00


Updated Automatically by Ambient Software's Virtual Weather Station  V14.01
All rights reserved. Unauthorized duplication or distribution is prohibited
Never base important decisions on this or any weather information obtained from the Internet